Time;durP1;ratioP1;P1;durP2;ratioP2;P2;SDS_P1;SDS_P2;PMS_P1;PMS_P2;Temp;Humidity;BMP_temperature;BMP_pressure;BME280_temperature;BME280_humidity;BME280_pressure;Samples;Min_cycle;Max_cycle;Signal;HPM_P1;HPM_P2
2023/08/30 00:01:02;;;;;;;4.78;1.67;;;;;;;;;;5141328;27;20046;-76
2023/08/30 00:03:28;;;;;;;4.75;1.80;;;;;;;;;;5142470;27;20343;-74
2023/08/30 00:05:55;;;;;;;3.42;1.70;;;;;;;;;;5142315;27;20051;-75
2023/08/30 00:08:22;;;;;;;4.18;1.80;;;;;;;;;;5142053;27;20047;-80
2023/08/30 00:10:49;;;;;;;5.35;1.60;;;;;;;;;;5142281;27;20077;-73
2023/08/30 00:13:16;;;;;;;2.95;1.77;;;;;;;;;;5142448;27;20110;-73
2023/08/30 00:15:42;;;;;;;4.72;1.65;;;;;;;;;;5142181;27;20498;-73
2023/08/30 00:18:09;;;;;;;4.10;1.67;;;;;;;;;;5142491;27;20050;-74
2023/08/30 00:20:37;;;;;;;2.65;1.67;;;;;;;;;;5142179;27;20104;-75
2023/08/30 00:23:04;;;;;;;3.17;1.70;;;;;;;;;;5141207;27;20058;-73
2023/08/30 00:25:31;;;;;;;2.83;1.55;;;;;;;;;;5142179;27;20355;-75
2023/08/30 00:27:58;;;;;;;4.22;1.77;;;;;;;;;;5142247;27;20077;-75
2023/08/30 00:30:24;;;;;;;4.28;1.90;;;;;;;;;;5142337;27;20047;-74
2023/08/30 00:32:51;;;;;;;6.43;1.95;;;;;;;;;;5141860;27;20051;-80
2023/08/30 00:35:18;;;;;;;3.95;1.92;;;;;;;;;;5141770;27;20054;-75
2023/08/30 00:37:45;;;;;;;5.05;1.77;;;;;;;;;;5141120;27;20050;-74
2023/08/30 00:40:11;;;;;;;3.80;1.85;;;;;;;;;;5141774;27;20043;-80
2023/08/30 00:42:40;;;;;;;4.30;1.80;;;;;;;;;;5141771;27;20110;-74
2023/08/30 00:45:07;;;;;;;3.08;1.58;;;;;;;;;;5141808;27;20049;-78
2023/08/30 00:47:35;;;;;;;3.00;1.77;;;;;;;;;;5141744;27;20050;-77
2023/08/30 00:50:02;;;;;;;4.15;1.83;;;;;;;;;;5142010;27;20043;-75
2023/08/30 00:52:29;;;;;;;3.03;1.65;;;;;;;;;;5141058;27;20411;-74
2023/08/30 00:54:55;;;;;;;3.58;1.77;;;;;;;;;;5140384;27;20059;-74
2023/08/30 00:57:23;;;;;;;3.47;1.70;;;;;;;;;;5141525;27;20066;-76
2023/08/30 00:59:53;;;;;;;3.65;1.80;;;;;;;;;;5141836;27;20043;-80
2023/08/30 01:02:19;;;;;;;3.33;1.70;;;;;;;;;;5141598;27;20067;-74
2023/08/30 01:04:47;;;;;;;2.88;1.77;;;;;;;;;;5141714;27;20043;-73
2023/08/30 01:07:13;;;;;;;2.83;1.75;;;;;;;;;;5141626;27;20163;-75
2023/08/30 01:09:40;;;;;;;3.17;1.67;;;;;;;;;;5141017;27;20080;-74
2023/08/30 01:12:14;;;;;;;2.30;1.50;;;;;;;;;;5141006;27;20079;-74
2023/08/30 01:15:06;;;;;;;3.80;1.90;;;;;;;;;;5141454;27;20043;-74
2023/08/30 01:17:33;;;;;;;3.60;1.80;;;;;;;;;;5141268;27;20051;-74
2023/08/30 01:20:08;;;;;;;2.70;1.40;;;;;;;;;;5141474;27;20049;-74
2023/08/30 01:23:05;;;;;;;4.60;1.80;;;;;;;;;;5140901;27;20050;-75
2023/08/30 01:25:47;;;;;;;4.47;1.90;;;;;;;;;;5141275;27;20043;-74
2023/08/30 01:28:19;;;;;;;3.15;1.50;;;;;;;;;;5141285;28;20054;-75
2023/08/30 01:30:46;;;;;;;3.33;1.60;;;;;;;;;;5141190;28;20058;-75
2023/08/30 01:33:17;;;;;;;5.22;1.90;;;;;;;;;;5140709;27;20078;-75
2023/08/30 01:35:45;;;;;;;3.97;1.75;;;;;;;;;;5142673;27;20064;-75
2023/08/30 01:38:14;;;;;;;3.63;1.80;;;;;;;;;;5143959;27;20100;-79
2023/08/30 01:40:43;;;;;;;3.95;2.03;;;;;;;;;;5145591;27;20049;-81
2023/08/30 01:43:13;;;;;;;3.78;1.65;;;;;;;;;;5145286;27;20047;-80
2023/08/30 01:45:43;;;;;;;3.97;1.70;;;;;;;;;;5145350;27;20110;-79
2023/08/30 01:48:15;;;;;;;5.97;1.98;;;;;;;;;;5145035;27;20234;-74
2023/08/30 01:50:43;;;;;;;3.90;1.60;;;;;;;;;;5144945;27;20050;-73
2023/08/30 01:53:12;;;;;;;4.28;1.83;;;;;;;;;;5144467;27;20055;-75
2023/08/30 01:55:39;;;;;;;2.85;1.73;;;;;;;;;;5145343;27;20424;-77
2023/08/30 01:58:06;;;;;;;4.20;1.67;;;;;;;;;;5143722;27;20335;-74
2023/08/30 02:00:35;;;;;;;4.25;1.67;;;;;;;;;;5144960;27;20448;-74
2023/08/30 02:03:10;;;;;;;4.93;1.83;;;;;;;;;;5144705;27;20299;-77
2023/08/30 02:06:11;;;;;;;4.22;1.73;;;;;;;;;;5144691;27;20254;-75
2023/08/30 02:08:52;;;;;;;;;;;;;;;;;;5118094;27;20051;-74
2023/08/30 02:11:23;;;;;;;4.03;1.52;;;;;;;;;;5144808;27;19924;-77
2023/08/30 02:13:52;;;;;;;3.33;1.60;;;;;;;;;;5144651;27;20104;-77
2023/08/30 02:16:22;;;;;;;3.20;1.60;;;;;;;;;;5144830;27;20054;-78
2023/08/30 02:18:49;;;;;;;3.80;2.00;;;;;;;;;;5144770;27;20047;-81
2023/08/30 02:21:16;;;;;;;3.78;1.88;;;;;;;;;;5144509;27;20077;-75
2023/08/30 02:23:43;;;;;;;5.13;1.80;;;;;;;;;;5143950;27;20043;-75
2023/08/30 02:26:10;;;;;;;2.85;1.70;;;;;;;;;;5143643;27;20051;-75
2023/08/30 02:28:38;;;;;;;5.03;1.80;;;;;;;;;;5144608;27;20051;-77
2023/08/30 02:31:05;;;;;;;5.90;1.95;;;;;;;;;;5144328;27;20070;-74
2023/08/30 02:33:31;;;;;;;2.92;1.60;;;;;;;;;;5143840;27;20324;-75
2023/08/30 02:36:00;;;;;;;5.80;2.20;;;;;;;;;;5144598;27;20115;-74
2023/08/30 02:38:26;;;;;;;3.28;1.90;;;;;;;;;;5143364;27;20114;-74
2023/08/30 02:40:53;;;;;;;4.32;1.70;;;;;;;;;;5144277;27;20135;-73
2023/08/30 02:43:20;;;;;;;3.78;1.70;;;;;;;;;;5143878;27;20113;-75
2023/08/30 02:45:51;;;;;;;5.15;1.90;;;;;;;;;;5144185;27;20051;-77
2023/08/30 02:48:18;;;;;;;4.95;2.03;;;;;;;;;;5143730;27;20047;-74
2023/08/30 02:50:44;;;;;;;2.60;1.58;;;;;;;;;;5144297;27;20077;-75
2023/08/30 02:53:11;;;;;;;4.43;1.90;;;;;;;;;;5143143;27;20114;-73
2023/08/30 02:55:38;;;;;;;4.47;2.13;;;;;;;;;;5143999;27;20162;-74
2023/08/30 02:58:04;;;;;;;2.45;1.50;;;;;;;;;;5143623;27;20078;-75
2023/08/30 03:00:31;;;;;;;4.55;2.03;;;;;;;;;;5143951;27;20043;-74
2023/08/30 03:02:58;;;;;;;5.18;1.88;;;;;;;;;;5143374;27;20047;-74
2023/08/30 03:05:26;;;;;;;4.97;2.20;;;;;;;;;;5143705;27;20235;-75
2023/08/30 03:07:53;;;;;;;4.55;1.85;;;;;;;;;;5143155;27;20051;-74
2023/08/30 03:10:20;;;;;;;4.45;1.90;;;;;;;;;;5143334;27;20070;-75
2023/08/30 03:12:46;;;;;;;4.50;1.88;;;;;;;;;;5142284;27;20445;-75
2023/08/30 03:15:13;;;;;;;3.78;1.63;;;;;;;;;;5143732;27;20043;-80
2023/08/30 03:17:40;;;;;;;4.00;2.00;;;;;;;;;;5143685;27;20065;-75
2023/08/30 03:20:07;;;;;;;4.25;2.00;;;;;;;;;;5142465;27;20051;-74
2023/08/30 03:22:34;;;;;;;4.20;2.10;;;;;;;;;;5143028;27;20110;-75
2023/08/30 03:25:03;;;;;;;4.95;2.00;;;;;;;;;;5143200;27;20253;-76
2023/08/30 03:27:30;;;;;;;3.75;1.85;;;;;;;;;;5143163;27;20480;-78
2023/08/30 03:29:56;;;;;;;4.95;2.00;;;;;;;;;;5143190;27;20327;-73
2023/08/30 03:32:23;;;;;;;4.30;2.03;;;;;;;;;;5142971;27;20055;-74
2023/08/30 03:34:50;;;;;;;3.55;1.75;;;;;;;;;;5142571;27;20059;-74
2023/08/30 03:37:17;;;;;;;2.78;1.73;;;;;;;;;;5143100;27;20110;-77
2023/08/30 03:39:44;;;;;;;6.05;1.98;;;;;;;;;;5142747;27;20114;-74
2023/08/30 03:42:10;;;;;;;4.32;1.80;;;;;;;;;;5143166;27;20115;-74
2023/08/30 03:44:38;;;;;;;3.45;2.17;;;;;;;;;;5143046;27;20043;-75
2023/08/30 03:47:05;;;;;;;5.45;2.00;;;;;;;;;;5142816;27;20081;-75
2023/08/30 03:49:32;;;;;;;5.00;1.95;;;;;;;;;;5142523;27;20053;-74
2023/08/30 03:51:59;;;;;;;4.28;1.77;;;;;;;;;;5142979;27;20047;-75
2023/08/30 03:54:25;;;;;;;5.13;1.90;;;;;;;;;;5142058;27;20114;-74
2023/08/30 03:56:52;;;;;;;4.35;2.00;;;;;;;;;;5142682;27;20071;-80
2023/08/30 03:59:19;;;;;;;4.20;1.73;;;;;;;;;;5142268;27;20043;-74
2023/08/30 04:01:46;;;;;;;4.63;2.10;;;;;;;;;;5142776;27;20050;-77
2023/08/30 04:04:12;;;;;;;3.78;1.88;;;;;;;;;;5142510;27;20074;-77
2023/08/30 04:06:39;;;;;;;3.50;1.73;;;;;;;;;;5142655;27;20043;-73
2023/08/30 04:09:06;;;;;;;4.28;2.10;;;;;;;;;;5141744;27;20077;-73
2023/08/30 04:11:33;;;;;;;3.70;1.73;;;;;;;;;;5141522;27;20050;-73
2023/08/30 04:14:00;;;;;;;3.80;1.77;;;;;;;;;;5142455;27;20050;-73
2023/08/30 04:16:26;;;;;;;3.03;1.70;;;;;;;;;;5142388;27;20047;-74
2023/08/30 04:18:54;;;;;;;2.85;1.60;;;;;;;;;;5142414;27;20043;-75
2023/08/30 04:21:20;;;;;;;6.43;1.75;;;;;;;;;;5142399;27;20046;-75
2023/08/30 04:23:47;;;;;;;4.20;1.95;;;;;;;;;;5141642;27;20043;-73
2023/08/30 04:26:14;;;;;;;6.05;2.00;;;;;;;;;;5142019;27;20050;-73
2023/08/30 04:28:40;;;;;;;3.17;1.70;;;;;;;;;;5141940;27;20043;-75
2023/08/30 04:31:07;;;;;;;4.18;1.80;;;;;;;;;;5142114;27;20050;-73
2023/08/30 04:33:34;;;;;;;2.83;1.80;;;;;;;;;;5141542;27;20066;-74
2023/08/30 04:36:03;;;;;;;3.50;1.98;;;;;;;;;;5142094;27;20051;-76
2023/08/30 04:38:30;;;;;;;2.83;1.67;;;;;;;;;;5141593;27;20107;-76
2023/08/30 04:40:59;;;;;;;3.17;1.65;;;;;;;;;;5141865;27;20043;-76
2023/08/30 04:43:26;;;;;;;3.95;2.00;;;;;;;;;;5141464;27;20047;-75
2023/08/30 04:45:53;;;;;;;4.28;1.85;;;;;;;;;;5141515;27;20042;-82
2023/08/30 04:48:20;;;;;;;3.63;1.77;;;;;;;;;;5141871;27;20080;-81
2023/08/30 04:50:46;;;;;;;6.65;2.30;;;;;;;;;;5141457;27;20051;-75
2023/08/30 04:53:13;;;;;;;5.45;2.17;;;;;;;;;;5141580;27;20078;-74
2023/08/30 04:55:40;;;;;;;3.50;1.63;;;;;;;;;;5141430;27;20050;-78
2023/08/30 04:58:07;;;;;;;3.15;1.70;;;;;;;;;;5141320;27;20102;-75
2023/08/30 05:00:34;;;;;;;5.28;1.80;;;;;;;;;;5141730;27;20047;-74
2023/08/30 05:03:00;;;;;;;3.17;1.73;;;;;;;;;;5141772;27;20043;-78
2023/08/30 05:05:27;;;;;;;4.63;2.00;;;;;;;;;;5141164;27;20082;-73
2023/08/30 05:07:54;;;;;;;5.13;2.13;;;;;;;;;;5141473;27;20081;-74
2023/08/30 05:10:21;;;;;;;5.57;1.83;;;;;;;;;;5141510;27;20047;-74
2023/08/30 05:12:51;;;;;;;3.72;1.95;;;;;;;;;;5141459;27;20078;-74
2023/08/30 05:15:18;;;;;;;3.20;1.77;;;;;;;;;;5141510;27;20054;-73
2023/08/30 05:17:46;;;;;;;2.53;1.75;;;;;;;;;;5141479;27;20047;-73
2023/08/30 05:20:12;;;;;;;3.78;1.98;;;;;;;;;;5141169;27;20078;-73
2023/08/30 05:22:39;;;;;;;4.53;1.85;;;;;;;;;;5140988;27;20047;-73
2023/08/30 05:25:06;;;;;;;3.28;1.75;;;;;;;;;;5141216;27;20070;-73
2023/08/30 05:27:33;;;;;;;3.30;1.90;;;;;;;;;;5140416;28;20105;-74
2023/08/30 05:29:59;;;;;;;3.25;1.83;;;;;;;;;;5141216;28;20049;-74
2023/08/30 05:32:26;;;;;;;4.63;2.10;;;;;;;;;;5141272;27;20061;-75
2023/08/30 05:34:53;;;;;;;3.42;1.70;;;;;;;;;;5141030;27;20275;-79
2023/08/30 05:37:20;;;;;;;3.80;1.90;;;;;;;;;;5141433;28;20066;-80
2023/08/30 05:39:46;;;;;;;4.93;1.98;;;;;;;;;;5140445;27;20062;-75
2023/08/30 05:42:13;;;;;;;4.28;2.20;;;;;;;;;;5141263;27;20043;-75
2023/08/30 05:44:40;;;;;;;2.80;1.38;;;;;;;;;;5140947;28;20123;-75
2023/08/30 05:47:06;;;;;;;3.58;2.05;;;;;;;;;;5141205;27;20043;-74
2023/08/30 05:49:33;;;;;;;2.60;1.70;;;;;;;;;;5141046;27;20044;-74
2023/08/30 05:52:00;;;;;;;4.50;1.85;;;;;;;;;;5140848;27;20043;-73
2023/08/30 05:54:29;;;;;;;3.10;1.80;;;;;;;;;;5151538;27;20116;-75
2023/08/30 05:56:56;;;;;;;7.28;1.85;;;;;;;;;;5161504;27;20049;-74
2023/08/30 05:59:22;;;;;;;5.65;2.10;;;;;;;;;;5161396;27;20261;-73
2023/08/30 06:01:49;;;;;;;4.57;1.98;;;;;;;;;;5161571;27;20046;-77
2023/08/30 06:04:16;;;;;;;5.13;2.00;;;;;;;;;;5161435;27;20046;-75
2023/08/30 06:06:43;;;;;;;5.63;2.20;;;;;;;;;;5161319;27;20299;-74
2023/08/30 06:09:11;;;;;;;3.40;1.80;;;;;;;;;;5161161;27;20324;-74
2023/08/30 06:11:37;;;;;;;3.30;2.08;;;;;;;;;;5160979;27;20055;-74
2023/08/30 06:14:07;;;;;;;5.75;2.03;;;;;;;;;;5161038;27;20302;-74
2023/08/30 06:16:36;;;;;;;3.30;2.05;;;;;;;;;;5161189;27;20109;-80
2023/08/30 06:19:03;;;;;;;3.60;1.83;;;;;;;;;;5161139;27;20330;-82
2023/08/30 06:21:32;;;;;;;7.88;1.85;;;;;;;;;;5160681;27;20066;-78
2023/08/30 06:23:59;;;;;;;4.85;1.55;;;;;;;;;;5164863;27;20043;-74
2023/08/30 06:26:26;;;;;;;5.35;2.25;;;;;;;;;;5165007;27;20043;-75
2023/08/30 06:28:53;;;;;;;4.10;2.10;;;;;;;;;;5165380;27;20048;-77
2023/08/30 06:31:32;;;;;;;5.10;2.17;;;;;;;;;;5165186;27;20095;-72
2023/08/30 06:33:59;;;;;;;3.50;1.80;;;;;;;;;;5164691;27;20059;-74
2023/08/30 06:36:26;;;;;;;4.03;1.92;;;;;;;;;;5164564;27;20083;-77
2023/08/30 06:38:53;;;;;;;3.92;1.88;;;;;;;;;;5164138;27;20047;-74
2023/08/30 06:41:19;;;;;;;4.00;1.85;;;;;;;;;;5163340;27;20330;-74
2023/08/30 06:43:46;;;;;;;4.20;2.00;;;;;;;;;;5164779;27;20079;-73
2023/08/30 06:46:13;;;;;;;5.00;2.03;;;;;;;;;;5164696;27;20057;-78
2023/08/30 06:48:40;;;;;;;4.40;2.10;;;;;;;;;;5158042;27;20049;-73
2023/08/30 06:51:07;;;;;;;2.80;1.60;;;;;;;;;;5154858;27;20075;-75
2023/08/30 06:53:34;;;;;;;3.15;1.88;;;;;;;;;;5147393;27;20275;-74
2023/08/30 06:56:02;;;;;;;4.43;2.00;;;;;;;;;;5155751;27;20387;-73
2023/08/30 06:58:29;;;;;;;6.80;2.20;;;;;;;;;;5143693;27;20053;-73
2023/08/30 07:00:57;;;;;;;4.00;1.85;;;;;;;;;;5143411;27;20392;-74
2023/08/30 07:03:24;;;;;;;3.00;1.80;;;;;;;;;;5142334;27;20058;-73
2023/08/30 07:05:52;;;;;;;3.42;1.73;;;;;;;;;;5143601;27;20141;-74
2023/08/30 07:08:19;;;;;;;6.50;2.17;;;;;;;;;;5141874;27;20047;-76
2023/08/30 07:10:45;;;;;;;4.72;2.00;;;;;;;;;;5143212;27;20043;-74
2023/08/30 07:13:12;;;;;;;4.50;1.95;;;;;;;;;;5143363;27;20054;-79
2023/08/30 07:15:40;;;;;;;5.38;2.03;;;;;;;;;;5143249;27;20106;-77
2023/08/30 07:18:08;;;;;;;4.60;1.60;;;;;;;;;;5142034;27;20485;-73
2023/08/30 07:20:36;;;;;;;3.30;1.80;;;;;;;;;;5143070;27;20378;-73
2023/08/30 07:23:05;;;;;;;3.35;1.70;;;;;;;;;;5140297;27;20053;-73
2023/08/30 07:25:37;;;;;;;3.15;1.67;;;;;;;;;;5142898;27;20289;-73
2023/08/30 07:28:04;;;;;;;3.90;1.80;;;;;;;;;;5142731;27;20316;-73
2023/08/30 07:30:32;;;;;;;5.18;1.70;;;;;;;;;;5142651;27;20039;-77
2023/08/30 07:32:59;;;;;;;3.55;1.63;;;;;;;;;;5142069;27;20043;-73
2023/08/30 07:35:26;;;;;;;4.00;1.70;;;;;;;;;;5142384;27;20050;-73
2023/08/30 07:37:52;;;;;;;3.28;1.63;;;;;;;;;;5161648;27;20043;-75
2023/08/30 07:40:20;;;;;;;4.53;1.88;;;;;;;;;;5163777;27;20043;-76
2023/08/30 07:42:47;;;;;;;5.40;1.88;;;;;;;;;;5163142;27;20101;-78
2023/08/30 07:45:14;;;;;;;3.47;1.80;;;;;;;;;;5162768;27;20453;-73
2023/08/30 07:47:40;;;;;;;4.00;1.90;;;;;;;;;;5163593;27;20042;-76
2023/08/30 07:50:08;;;;;;;4.00;1.90;;;;;;;;;;5163343;27;20103;-76
2023/08/30 07:52:34;;;;;;;3.38;1.80;;;;;;;;;;5161058;27;20308;-75
2023/08/30 07:55:11;;;;;;;2.80;1.60;;;;;;;;;;5161073;27;20427;-74
2023/08/30 07:57:37;;;;;;;4.40;1.50;;;;;;;;;;5146857;27;20043;-75
2023/08/30 08:00:05;;;;;;;3.10;1.63;;;;;;;;;;5142096;27;20234;-77
2023/08/30 08:02:32;;;;;;;3.45;1.73;;;;;;;;;;5141561;27;20043;-74
2023/08/30 08:04:59;;;;;;;3.53;1.55;;;;;;;;;;5140020;27;20070;-74
2023/08/30 08:07:25;;;;;;;3.25;1.77;;;;;;;;;;5141731;27;20114;-74
2023/08/30 08:09:55;;;;;;;3.55;1.67;;;;;;;;;;5141830;27;20055;-75
2023/08/30 08:12:21;;;;;;;2.90;1.60;;;;;;;;;;5140256;27;20055;-74
2023/08/30 08:14:48;;;;;;;4.25;1.70;;;;;;;;;;5140909;27;20058;-75
2023/08/30 08:17:15;;;;;;;6.75;1.70;;;;;;;;;;5141978;27;20074;-74
2023/08/30 08:19:43;;;;;;;5.70;1.58;;;;;;;;;;5141970;27;20051;-74
2023/08/30 08:22:10;;;;;;;3.95;1.63;;;;;;;;;;5141631;27;20141;-79
2023/08/30 08:24:37;;;;;;;2.50;1.35;;;;;;;;;;5158907;27;20111;-76
2023/08/30 08:27:05;;;;;;;5.22;1.90;;;;;;;;;;5159671;27;20110;-73
2023/08/30 08:29:32;;;;;;;2.45;1.38;;;;;;;;;;5161263;27;20690;-76
2023/08/30 08:31:59;;;;;;;3.50;1.60;;;;;;;;;;5154853;27;20043;-75
2023/08/30 08:34:26;;;;;;;3.15;1.50;;;;;;;;;;5153579;27;20078;-74
2023/08/30 08:36:53;;;;;;;2.80;1.50;;;;;;;;;;5161238;27;20117;-73
2023/08/30 08:39:20;;;;;;;5.50;1.50;;;;;;;;;;5161689;27;20127;-76
2023/08/30 08:41:46;;;;;;;2.15;1.20;;;;;;;;;;5159625;27;20045;-75
2023/08/30 08:44:14;;;;;;;2.38;1.30;;;;;;;;;;5159695;27;20051;-76
2023/08/30 08:46:41;;;;;;;4.88;1.70;;;;;;;;;;5157781;27;20046;-75
2023/08/30 08:49:16;;;;;;;3.70;1.45;;;;;;;;;;5158429;27;20081;-75
2023/08/30 08:51:44;;;;;;;3.92;1.92;;;;;;;;;;5157112;27;20042;-75
2023/08/30 08:54:12;;;;;;;2.88;1.60;;;;;;;;;;5152033;27;20648;-74
2023/08/30 08:56:39;;;;;;;2.65;1.55;;;;;;;;;;5151332;27;20047;-75
2023/08/30 08:59:07;;;;;;;2.50;1.48;;;;;;;;;;5158638;27;20069;-73
2023/08/30 09:01:35;;;;;;;3.35;1.70;;;;;;;;;;5159932;27;20053;-73
2023/08/30 09:04:09;;;;;;;3.58;1.48;;;;;;;;;;5158757;27;20049;-73
2023/08/30 09:06:39;;;;;;;3.50;1.60;;;;;;;;;;5161834;27;20118;-74
2023/08/30 09:09:08;;;;;;;4.07;1.67;;;;;;;;;;5160178;27;20052;-72
2023/08/30 09:11:35;;;;;;;2.95;1.67;;;;;;;;;;5160602;27;20046;-73
2023/08/30 09:14:17;;;;;;;3.47;1.80;;;;;;;;;;5160257;27;20047;-75
2023/08/30 09:16:57;;;;;;;2.88;1.45;;;;;;;;;;5160558;27;20105;-72
2023/08/30 09:19:24;;;;;;;2.97;1.40;;;;;;;;;;5160781;27;20043;-73
2023/08/30 09:22:00;;;;;;;4.05;1.70;;;;;;;;;;5160954;27;20042;-73
2023/08/30 09:24:41;;;;;;;3.50;1.63;;;;;;;;;;5160137;27;20146;-73
2023/08/30 09:27:08;;;;;;;3.73;1.60;;;;;;;;;;5161756;27;20050;-74
2023/08/30 09:29:35;;;;;;;3.13;1.70;;;;;;;;;;5161550;27;20280;-79
2023/08/30 09:32:01;;;;;;;4.93;1.88;;;;;;;;;;5160722;27;20043;-73
2023/08/30 09:34:29;;;;;;;4.18;1.92;;;;;;;;;;5161202;27;20207;-73
2023/08/30 09:36:55;;;;;;;4.35;1.80;;;;;;;;;;5161301;27;20049;-83
2023/08/30 09:39:22;;;;;;;2.83;1.60;;;;;;;;;;5160830;27;20049;-79
2023/08/30 09:41:53;;;;;;;4.05;1.67;;;;;;;;;;5161594;27;20051;-83
2023/08/30 09:44:21;;;;;;;3.92;1.90;;;;;;;;;;5161496;27;20057;-73
2023/08/30 09:46:55;;;;;;;3.65;1.77;;;;;;;;;;5161639;27;20078;-74
2023/08/30 09:49:24;;;;;;;3.38;1.70;;;;;;;;;;5161388;27;20054;-74
2023/08/30 09:51:52;;;;;;;4.97;1.88;;;;;;;;;;5161305;27;20070;-73
2023/08/30 09:54:24;;;;;;;3.17;1.63;;;;;;;;;;5161014;27;20051;-75
2023/08/30 09:56:56;;;;;;;3.83;1.83;;;;;;;;;;5163238;27;20053;-73
2023/08/30 09:59:23;;;;;;;3.45;1.67;;;;;;;;;;5165343;27;20043;-73
2023/08/30 10:01:52;;;;;;;3.38;1.80;;;;;;;;;;5165832;27;20112;-77
2023/08/30 10:04:20;;;;;;;3.38;1.40;;;;;;;;;;5163836;27;20325;-77
2023/08/30 10:06:51;;;;;;;3.53;1.60;;;;;;;;;;5165055;27;20046;-72
2023/08/30 10:09:22;;;;;;;3.25;1.70;;;;;;;;;;5164730;27;20074;-73
2023/08/30 10:11:49;;;;;;;4.00;1.83;;;;;;;;;;5165254;27;20114;-77
2023/08/30 10:14:17;;;;;;;2.20;1.33;;;;;;;;;;5164751;27;20106;-75
2023/08/30 10:16:47;;;;;;;3.38;1.52;;;;;;;;;;5163661;27;20043;-74
2023/08/30 10:19:27;;;;;;;2.83;1.60;;;;;;;;;;5159219;27;20049;-74
2023/08/30 10:22:15;;;;;;;4.43;1.70;;;;;;;;;;5164560;27;20042;-75
2023/08/30 10:24:52;;;;;;;2.92;1.70;;;;;;;;;;5161404;27;20070;-75
2023/08/30 10:27:46;;;;;;;3.33;1.65;;;;;;;;;;5159000;27;20487;-75
2023/08/30 10:30:14;;;;;;;5.15;1.83;;;;;;;;;;5161720;27;20053;-73
2023/08/30 10:32:42;;;;;;;3.22;1.63;;;;;;;;;;5164894;27;20059;-74
2023/08/30 10:35:13;;;;;;;2.90;1.50;;;;;;;;;;5164487;27;20058;-74
2023/08/30 10:37:41;;;;;;;4.05;2.00;;;;;;;;;;5164091;27;20071;-74
2023/08/30 10:40:08;;;;;;;3.33;1.88;;;;;;;;;;5164741;27;20043;-84
2023/08/30 10:42:35;;;;;;;4.05;1.90;;;;;;;;;;5164425;27;20053;-76
2023/08/30 10:45:07;;;;;;;2.45;1.60;;;;;;;;;;5164461;27;20109;-74
2023/08/30 10:47:37;;;;;;;3.80;1.75;;;;;;;;;;5164615;27;20047;-73
2023/08/30 10:50:12;;;;;;;3.35;1.60;;;;;;;;;;5164572;27;20096;-76
2023/08/30 10:52:39;;;;;;;3.92;1.55;;;;;;;;;;5153840;27;20039;-74
2023/08/30 10:55:07;;;;;;;2.40;1.40;;;;;;;;;;5160836;27;20081;-74
2023/08/30 10:57:35;;;;;;;3.42;1.50;;;;;;;;;;5143752;27;20049;-75
2023/08/30 11:00:15;;;;;;;3.13;1.50;;;;;;;;;;5147922;27;20349;-75
2023/08/30 11:02:46;;;;;;;3.30;1.50;;;;;;;;;;5164100;27;20070;-77
2023/08/30 11:05:16;;;;;;;2.53;1.30;;;;;;;;;;5163367;27;20057;-76
2023/08/30 11:07:45;;;;;;;2.88;1.48;;;;;;;;;;5152334;27;20099;-75
2023/08/30 11:10:12;;;;;;;2.20;1.33;;;;;;;;;;5133700;27;20047;-73
2023/08/30 11:12:43;;;;;;;3.42;1.60;;;;;;;;;;5137841;27;20047;-73
2023/08/30 11:15:10;;;;;;;2.80;1.23;;;;;;;;;;5142905;27;20055;-76
2023/08/30 11:17:37;;;;;;;3.63;1.40;;;;;;;;;;5141544;27;20061;-78
2023/08/30 11:20:12;;;;;;;3.55;1.58;;;;;;;;;;5143105;27;20292;-74
2023/08/30 11:22:42;;;;;;;4.03;1.83;;;;;;;;;;5142838;27;20679;-74
2023/08/30 11:25:10;;;;;;;3.25;1.60;;;;;;;;;;5137631;27;20379;-73
2023/08/30 11:27:38;;;;;;;3.13;1.58;;;;;;;;;;5134297;27;20225;-80
2023/08/30 11:30:06;;;;;;;2.85;1.65;;;;;;;;;;5134485;27;20070;-75
2023/08/30 11:32:34;;;;;;;2.80;1.65;;;;;;;;;;5141680;27;20047;-76
2023/08/30 11:35:02;;;;;;;5.10;1.70;;;;;;;;;;5142477;27;20054;-72
2023/08/30 11:37:29;;;;;;;1.77;1.30;;;;;;;;;;5142757;27;20043;-73
2023/08/30 11:39:55;;;;;;;3.55;1.50;;;;;;;;;;5136443;27;20043;-78
2023/08/30 11:42:23;;;;;;;3.50;1.48;;;;;;;;;;5130993;27;20059;-75
2023/08/30 11:44:51;;;;;;;2.22;1.20;;;;;;;;;;5130862;27;20039;-74
2023/08/30 11:47:22;;;;;;;3.20;1.40;;;;;;;;;;5130907;27;20145;-77
2023/08/30 11:49:50;;;;;;;2.30;1.30;;;;;;;;;;5130699;27;20053;-74
2023/08/30 11:52:18;;;;;;;2.13;1.30;;;;;;;;;;5134078;27;20051;-74
2023/08/30 11:54:45;;;;;;;3.33;1.50;;;;;;;;;;5136995;27;20490;-73
2023/08/30 11:57:11;;;;;;;2.63;1.20;;;;;;;;;;5145727;27;20046;-74
2023/08/30 11:59:38;;;;;;;2.80;1.63;;;;;;;;;;5135744;27;20058;-76
2023/08/30 12:02:07;;;;;;;3.15;1.35;;;;;;;;;;5143577;27;20074;-75
2023/08/30 12:04:45;;;;;;;3.22;1.60;;;;;;;;;;5150692;27;20047;-81
2023/08/30 12:07:25;;;;;;;1.98;1.33;;;;;;;;;;5157844;27;20062;-77
2023/08/30 12:10:07;;;;;;;3.25;1.40;;;;;;;;;;5158287;27;20173;-71
2023/08/30 12:12:36;;;;;;;3.08;1.50;;;;;;;;;;5141960;27;20251;-70
2023/08/30 12:15:10;;;;;;;2.92;1.45;;;;;;;;;;5142037;27;20051;-74
2023/08/30 12:17:37;;;;;;;2.47;1.30;;;;;;;;;;5141910;27;20294;-69
2023/08/30 12:20:04;;;;;;;3.45;1.23;;;;;;;;;;5141542;27;20046;-70
2023/08/30 12:22:40;;;;;;;2.45;1.20;;;;;;;;;;5141644;27;20331;-69
2023/08/30 12:25:17;;;;;;;2.72;1.25;;;;;;;;;;5141146;27;20050;-70
2023/08/30 12:27:44;;;;;;;1.65;0.90;;;;;;;;;;5150361;27;20039;-73
2023/08/30 12:30:11;;;;;;;2.58;1.30;;;;;;;;;;5155924;27;20050;-69
2023/08/30 12:32:37;;;;;;;5.55;1.30;;;;;;;;;;5157177;27;20462;-70
2023/08/30 12:35:05;;;;;;;2.17;1.30;;;;;;;;;;5153976;27;20050;-72
2023/08/30 12:37:31;;;;;;;3.30;1.13;;;;;;;;;;5152294;27;20123;-69
2023/08/30 12:39:58;;;;;;;2.47;1.10;;;;;;;;;;5162271;27;20073;-70
2023/08/30 12:42:24;;;;;;;1.98;1.00;;;;;;;;;;5162492;27;20044;-71
2023/08/30 12:44:51;;;;;;;2.90;1.00;;;;;;;;;;5158659;27;20050;-69
2023/08/30 12:47:18;;;;;;;2.10;1.23;;;;;;;;;;5141224;27;20046;-70
2023/08/30 12:49:44;;;;;;;1.83;1.02;;;;;;;;;;5140594;27;20069;-70
2023/08/30 12:52:11;;;;;;;2.40;1.38;;;;;;;;;;5152337;27;20038;-74
2023/08/30 12:54:38;;;;;;;1.90;1.15;;;;;;;;;;5144311;27;20050;-72
2023/08/30 12:57:04;;;;;;;2.35;1.13;;;;;;;;;;5161528;27;20110;-71
2023/08/30 12:59:31;;;;;;;2.13;1.27;;;;;;;;;;5152946;27;20058;-79
2023/08/30 13:01:58;;;;;;;2.47;1.00;;;;;;;;;;5146345;27;20038;-73
2023/08/30 13:04:25;;;;;;;1.58;1.10;;;;;;;;;;5161998;27;20302;-70
2023/08/30 13:06:52;;;;;;;2.58;1.10;;;;;;;;;;5161885;27;20062;-69
2023/08/30 13:09:18;;;;;;;2.30;1.02;;;;;;;;;;5142084;27;20043;-69
2023/08/30 13:11:45;;;;;;;1.95;1.10;;;;;;;;;;5138958;27;20042;-70
2023/08/30 13:14:11;;;;;;;1.73;1.00;;;;;;;;;;5140755;27;20047;-70
2023/08/30 13:16:38;;;;;;;1.52;0.95;;;;;;;;;;5140847;27;20130;-69
2023/08/30 13:19:05;;;;;;;1.83;1.10;;;;;;;;;;5142855;27;20326;-69
2023/08/30 13:21:31;;;;;;;2.25;1.05;;;;;;;;;;5161612;27;20118;-71
2023/08/30 13:24:07;;;;;;;3.88;0.95;;;;;;;;;;5161370;27;20043;-70
2023/08/30 13:26:34;;;;;;;1.83;0.85;;;;;;;;;;5161277;27;20340;-70
2023/08/30 13:29:02;;;;;;;1.02;0.73;;;;;;;;;;5156912;27;20242;-71
2023/08/30 13:31:29;;;;;;;1.73;0.80;;;;;;;;;;5149955;27;20092;-71
2023/08/30 13:33:55;;;;;;;2.20;1.10;;;;;;;;;;5152776;27;20050;-70
2023/08/30 13:36:22;;;;;;;1.23;0.80;;;;;;;;;;5159796;27;20557;-74
2023/08/30 13:38:49;;;;;;;2.05;0.80;;;;;;;;;;5147637;27;20047;-71
2023/08/30 13:41:16;;;;;;;1.67;0.70;;;;;;;;;;5133900;27;20039;-69
2023/08/30 13:43:42;;;;;;;1.10;0.80;;;;;;;;;;5133957;27;20434;-70
2023/08/30 13:46:09;;;;;;;1.40;1.00;;;;;;;;;;5141553;27;20043;-71
2023/08/30 13:48:36;;;;;;;1.50;1.00;;;;;;;;;;5159371;27;20054;-69
2023/08/30 13:51:02;;;;;;;2.00;1.00;;;;;;;;;;5165641;27;20046;-70
2023/08/30 13:53:30;;;;;;;1.13;0.85;;;;;;;;;;5157500;27;20359;-74
2023/08/30 13:55:56;;;;;;;1.70;1.00;;;;;;;;;;5144752;27;20074;-70
2023/08/30 13:58:23;;;;;;;1.60;1.02;;;;;;;;;;5144792;27;20043;-70
2023/08/30 14:00:50;;;;;;;1.38;0.80;;;;;;;;;;5144889;27;20326;-70
2023/08/30 14:03:16;;;;;;;1.98;0.90;;;;;;;;;;5151296;27;20082;-69
2023/08/30 14:05:43;;;;;;;1.58;0.82;;;;;;;;;;5165412;27;20268;-70
2023/08/30 14:08:10;;;;;;;1.83;1.00;;;;;;;;;;5165271;27;20098;-72
2023/08/30 14:10:37;;;;;;;1.17;0.80;;;;;;;;;;5165578;27;20042;-71
2023/08/30 14:13:04;;;;;;;1.92;1.10;;;;;;;;;;5165235;27;20046;-74
2023/08/30 14:15:34;;;;;;;1.20;0.90;;;;;;;;;;5164156;27;20050;-75
2023/08/30 14:18:04;;;;;;;1.15;0.80;;;;;;;;;;5164916;27;20110;-70
2023/08/30 14:20:34;;;;;;;1.53;0.90;;;;;;;;;;5165031;27;20043;-70
2023/08/30 14:23:00;;;;;;;1.27;0.80;;;;;;;;;;5164622;27;20354;-70
2023/08/30 14:25:27;;;;;;;1.90;0.90;;;;;;;;;;5165012;27;20244;-70
2023/08/30 14:27:55;;;;;;;1.52;0.90;;;;;;;;;;5164911;27;20390;-70
2023/08/30 14:30:21;;;;;;;1.63;0.82;;;;;;;;;;5157052;27;20110;-71
2023/08/30 14:32:48;;;;;;;2.25;1.00;;;;;;;;;;5143839;27;20106;-75
2023/08/30 14:35:15;;;;;;;1.73;0.88;;;;;;;;;;5143743;27;20063;-70
2023/08/30 14:37:41;;;;;;;1.42;0.90;;;;;;;;;;5151032;27;20042;-74
2023/08/30 14:40:08;;;;;;;1.77;0.80;;;;;;;;;;5165055;27;20087;-71
2023/08/30 14:42:35;;;;;;;1.48;1.00;;;;;;;;;;5164112;27;20046;-71
2023/08/30 14:45:02;;;;;;;1.17;0.90;;;;;;;;;;5164844;27;20056;-70
2023/08/30 14:47:30;;;;;;;1.60;1.00;;;;;;;;;;5164913;27;20043;-73
2023/08/30 14:49:57;;;;;;;2.15;1.00;;;;;;;;;;5164768;27;20056;-73